Time;durP1;ratioP1;P1;durP2;ratioP2;P2;SDS_P1;SDS_P2;PMS_P1;PMS_P2;Temp;Humidity;BMP_temperature;BMP_pressure;BME280_temperature;BME280_humidity;BME280_pressure;Samples;Min_cycle;Max_cycle;Signal;HPM_P1;HPM_P2
2021/07/06 00:02:25;;;;;;;17.63;16.00;;;16.50;95.20;;;;;;5111509;28;20403;-66
2021/07/06 00:04:59;;;;;;;20.17;16.83;;;16.50;95.20;;;;;;5111009;28;20052;-66
2021/07/06 00:07:25;;;;;;;19.37;16.77;;;16.50;95.30;;;;;;5111574;28;20480;-66
2021/07/06 00:09:52;;;;;;;18.90;16.07;;;16.50;95.30;;;;;;5111846;28;20459;-66
2021/07/06 00:12:19;;;;;;;19.77;17.17;;;16.50;95.30;;;;;;5110523;28;20047;-66
2021/07/06 00:14:45;;;;;;;16.10;14.20;;;16.50;95.30;;;;;;5111192;28;20059;-66
2021/07/06 00:17:11;;;;;;;16.53;14.13;;;16.50;95.30;;;;;;5111650;28;20122;-66
2021/07/06 00:19:37;;;;;;;14.47;13.07;;;16.50;95.30;;;;;;5110933;28;20427;-66
2021/07/06 00:22:03;;;;;;;18.23;15.40;;;16.50;95.30;;;;;;5111638;28;20046;-66
2021/07/06 00:24:29;;;;;;;16.53;14.80;;;16.40;95.40;;;;;;5111201;28;20053;-66
2021/07/06 00:26:55;;;;;;;14.40;12.87;;;16.40;95.40;;;;;;5110714;28;20122;-66
2021/07/06 00:29:21;;;;;;;17.90;14.50;;;16.40;95.40;;;;;;5111457;28;20058;-66
2021/07/06 00:31:47;;;;;;;17.53;15.67;;;16.40;95.40;;;;;;5111301;28;20051;-66
2021/07/06 00:34:12;;;;;;;19.57;17.00;;;16.40;95.50;;;;;;5110778;28;20532;-66
2021/07/06 00:36:38;;;;;;;18.27;16.47;;;16.40;95.50;;;;;;5111375;28;20094;-66
2021/07/06 00:39:05;;;;;;;15.93;14.23;;;16.30;95.60;;;;;;5110763;28;20467;-66
2021/07/06 00:41:33;;;;;;;20.73;17.83;;;16.40;95.70;;;;;;5111053;28;20116;-66
2021/07/06 00:44:00;;;;;;;19.50;17.47;;;16.30;95.70;;;;;;5111211;28;20484;-66
2021/07/06 00:46:26;;;;;;;19.20;17.30;;;16.40;95.70;;;;;;5110387;28;20075;-66
2021/07/06 00:48:52;;;;;;;21.83;18.10;;;16.40;95.70;;;;;;5111329;28;20075;-66
2021/07/06 00:51:18;;;;;;;21.03;17.77;;;16.50;95.70;;;;;;5111057;28;20494;-66
2021/07/06 00:53:44;;;;;;;19.67;17.87;;;16.40;96.10;;;;;;5110526;28;20047;-66
2021/07/06 00:56:10;;;;;;;22.60;19.40;;;16.40;95.70;;;;;;5111770;28;20472;-66
2021/07/06 00:58:37;;;;;;;18.80;16.87;;;16.40;95.80;;;;;;5115093;28;20498;-66
2021/07/06 01:01:03;;;;;;;19.23;17.17;;;16.40;95.80;;;;;;5114569;28;20138;-66
2021/07/06 01:03:32;;;;;;;20.37;18.40;;;16.40;95.80;;;;;;5114856;28;20112;-66
2021/07/06 01:05:58;;;;;;;20.10;18.20;;;16.40;95.80;;;;;;5115283;28;20049;-66
2021/07/06 01:08:24;;;;;;;22.60;20.40;;;16.40;95.90;;;;;;5113816;28;20436;-66
2021/07/06 01:10:52;;;;;;;22.33;20.03;;;16.40;95.90;;;;;;5114881;28;20055;-66
2021/07/06 01:13:18;;;;;;;23.17;20.90;;;16.40;95.90;;;;;;5114292;28;20113;-66
2021/07/06 01:15:44;;;;;;;22.23;20.03;;;16.50;95.90;;;;;;5114023;28;20051;-66
2021/07/06 01:18:14;;;;;;;22.83;20.33;;;16.50;95.90;;;;;;5114865;28;20047;-66
2021/07/06 01:20:44;;;;;;;22.30;20.20;;;16.40;95.80;;;;;;5114784;28;20054;-66
2021/07/06 01:23:10;;;;;;;21.20;19.27;;;16.40;95.90;;;;;;5113816;28;20062;-66
2021/07/06 01:25:37;;;;;;;23.07;20.60;;;16.40;95.90;;;;;;5114904;28;20040;-66
2021/07/06 01:28:04;;;;;;;22.57;20.37;;;16.40;95.90;;;;;;5114364;28;20073;-66
2021/07/06 01:30:31;;;;;;;20.67;18.87;;;16.40;95.90;;;;;;5114682;28;20047;-66
2021/07/06 01:32:57;;;;;;;22.57;20.30;;;16.40;96.00;;;;;;5114736;28;20060;-65
2021/07/06 01:35:23;;;;;;;21.37;19.17;;;16.40;96.00;;;;;;5113568;28;20055;-65
2021/07/06 01:37:51;;;;;;;22.77;20.57;;;16.40;96.10;;;;;;5114544;28;20051;-65
2021/07/06 01:40:19;;;;;;;22.10;20.00;;;16.40;96.10;;;;;;5113976;28;20154;-65
2021/07/06 01:42:46;;;;;;;20.33;18.20;;;16.40;96.10;;;;;;5113781;28;20041;-65
2021/07/06 01:45:15;;;;;;;21.70;19.57;;;16.40;96.10;;;;;;5114288;28;20051;-65
2021/07/06 01:47:44;;;;;;;21.63;19.10;;;16.40;96.10;;;;;;5114583;28;20081;-65
2021/07/06 01:50:18;;;;;;;21.77;19.43;;;16.40;96.10;;;;;;5113318;28;20071;-65
2021/07/06 01:52:49;;;;;;;22.03;19.20;;;16.40;96.10;;;;;;5114150;28;20450;-65
2021/07/06 01:55:17;;;;;;;21.35;19.25;;;16.40;96.00;;;;;;5114045;28;20131;-66
2021/07/06 01:57:44;;;;;;;19.30;17.40;;;16.50;96.00;;;;;;5113424;28;20046;-66
2021/07/06 02:00:15;;;;;;;21.30;19.10;;;16.50;96.00;;;;;;5113946;28;20085;-66
2021/07/06 02:02:41;;;;;;;18.17;16.47;;;16.50;95.90;;;;;;5113897;28;20048;-65
2021/07/06 02:05:17;;;;;;;19.73;17.97;;;16.50;95.90;;;;;;5112978;28;20057;-65
2021/07/06 02:07:49;;;;;;;18.97;16.93;;;16.50;95.90;;;;;;5113672;28;20063;-66
2021/07/06 02:10:16;;;;;;;19.23;17.13;;;16.50;95.80;;;;;;5113219;28;20055;-66
2021/07/06 02:12:42;;;;;;;19.40;17.47;;;16.50;95.70;;;;;;5113929;28;20044;-65
2021/07/06 02:15:11;;;;;;;17.37;15.77;;;16.60;95.70;;;;;;5113463;28;20127;-66
2021/07/06 02:17:37;;;;;;;18.33;16.13;;;16.60;95.60;;;;;;5113047;28;20526;-66
2021/07/06 02:20:08;;;;;;;16.40;14.83;;;16.60;95.60;;;;;;5113540;28;20047;-66
2021/07/06 02:22:35;;;;;;;14.25;12.80;;;16.70;95.50;;;;;;5114072;28;20107;-66
2021/07/06 02:25:01;;;;;;;15.83;14.23;;;16.70;95.50;;;;;;5112808;28;20055;-66
2021/07/06 02:27:26;;;;;;;16.93;15.23;;;16.70;95.40;;;;;;5113135;28;20044;-66
2021/07/06 02:29:52;;;;;;;16.03;14.43;;;16.70;95.40;;;;;;5113342;28;20507;-66
2021/07/06 02:32:19;;;;;;;16.70;15.10;;;16.70;95.30;;;;;;5112110;28;20039;-66
2021/07/06 02:34:44;;;;;;;17.10;14.23;;;16.70;95.30;;;;;;5113266;28;20100;-66
2021/07/06 02:37:10;;;;;;;16.43;14.73;;;16.70;95.30;;;;;;5113175;28;20051;-66
2021/07/06 02:39:36;;;;;;;15.20;13.73;;;16.80;95.30;;;;;;5112902;28;20048;-65
2021/07/06 02:42:02;;;;;;;15.77;14.23;;;16.80;95.20;;;;;;5113210;28;20044;-66
2021/07/06 02:44:28;;;;;;;16.40;13.80;;;16.80;95.20;;;;;;5112816;28;20050;-65
2021/07/06 02:46:53;;;;;;;14.50;13.00;;;16.80;95.20;;;;;;5112222;28;20052;-66
2021/07/06 02:49:19;;;;;;;15.60;14.00;;;16.80;95.30;;;;;;5112752;28;20044;-66
2021/07/06 02:51:45;;;;;;;15.70;13.77;;;16.80;95.30;;;;;;5113100;28;20218;-66
2021/07/06 02:54:10;;;;;;;16.27;13.17;;;16.80;95.30;;;;;;5111950;28;20459;-66
2021/07/06 02:56:36;;;;;;;14.37;12.87;;;16.80;95.40;;;;;;5112955;28;20069;-66
2021/07/06 02:59:03;;;;;;;13.97;12.53;;;16.80;95.50;;;;;;5112946;28;20081;-66
2021/07/06 03:01:28;;;;;;;14.50;12.87;;;16.80;95.50;;;;;;5111693;28;20054;-66
2021/07/06 03:03:54;;;;;;;13.27;11.47;;;16.80;95.50;;;;;;5112569;28;20043;-66
2021/07/06 03:06:20;;;;;;;13.60;12.20;;;16.80;95.50;;;;;;5112272;28;20051;-66
2021/07/06 03:08:45;;;;;;;18.60;12.60;;;16.80;95.50;;;;;;5112134;28;20047;-66
2021/07/06 03:11:11;;;;;;;14.10;11.60;;;16.80;95.50;;;;;;5112266;28;20129;-65
2021/07/06 03:13:37;;;;;;;13.10;10.60;;;16.80;95.60;;;;;;5111391;28;20200;-66
2021/07/06 03:16:02;;;;;;;12.93;10.23;;;16.80;95.50;;;;;;5112395;28;20428;-66
2021/07/06 03:18:28;;;;;;;11.20;10.10;;;16.80;95.60;;;;;;5111489;28;20765;-66
2021/07/06 03:20:54;;;;;;;12.10;10.83;;;16.90;95.60;;;;;;5111697;28;20066;-65
2021/07/06 03:23:19;;;;;;;13.40;10.43;;;16.90;95.60;;;;;;5112038;28;20048;-65
2021/07/06 03:25:45;;;;;;;11.33;9.77;;;16.90;95.50;;;;;;5112518;28;20051;-66
2021/07/06 03:28:12;;;;;;;11.70;10.60;;;16.90;95.50;;;;;;5111272;28;20051;-66
2021/07/06 03:30:38;;;;;;;11.53;10.03;;;17.00;95.50;;;;;;5112023;28;20073;-66
2021/07/06 03:33:09;;;;;;;14.70;10.53;;;17.00;95.40;;;;;;5112271;28;20156;-66
2021/07/06 03:35:36;;;;;;;13.70;9.90;;;17.00;95.40;;;;;;5111467;28;20150;-66
2021/07/06 03:38:02;;;;;;;10.53;8.93;;;17.00;95.40;;;;;;5112455;28;20332;-66
2021/07/06 03:40:29;;;;;;;11.10;9.70;;;16.90;95.40;;;;;;5111868;28;20565;-66
2021/07/06 03:42:55;;;;;;;13.70;9.77;;;16.90;95.40;;;;;;5111253;28;20059;-66
2021/07/06 03:45:22;;;;;;;10.57;9.43;;;17.00;95.40;;;;;;5111679;28;20121;-66
2021/07/06 03:47:48;;;;;;;11.43;9.17;;;16.90;95.40;;;;;;5112113;28;20070;-65
2021/07/06 03:50:20;;;;;;;13.27;9.80;;;16.90;95.50;;;;;;5111136;28;20059;-66
2021/07/06 03:52:50;;;;;;;14.43;9.20;;;16.90;95.50;;;;;;5111886;28;20056;-66
2021/07/06 03:55:16;;;;;;;13.10;9.73;;;16.90;95.50;;;;;;5111531;28;20047;-66
2021/07/06 03:57:43;;;;;;;10.50;9.47;;;16.90;95.60;;;;;;5111178;28;20048;-66
2021/07/06 04:00:15;;;;;;;12.57;9.50;;;16.90;95.60;;;;;;5111399;28;20436;-66
2021/07/06 04:02:41;;;;;;;8.82;7.72;;;16.90;95.70;;;;;;5111857;28;20075;-66
2021/07/06 04:05:09;;;;;;;11.07;8.83;;;16.80;95.70;;;;;;5111112;28;20086;-66
2021/07/06 04:07:35;;;;;;;11.63;9.10;;;16.90;95.90;;;;;;5111809;28;20135;-66
2021/07/06 04:10:05;;;;;;;10.07;9.03;;;16.80;95.90;;;;;;5111046;28;20085;-66
2021/07/06 04:12:30;;;;;;;10.13;8.43;;;16.90;95.90;;;;;;5111291;28;20044;-66
2021/07/06 04:15:06;;;;;;;10.53;9.20;;;16.90;95.80;;;;;;5111459;28;20399;-66
2021/07/06 04:17:32;;;;;;;9.50;7.30;;;17.00;95.80;;;;;;5110896;28;20044;-66
2021/07/06 04:19:58;;;;;;;8.67;7.77;;;17.00;95.70;;;;;;5111651;28;20070;-66
2021/07/06 04:22:23;;;;;;;9.27;8.13;;;17.00;95.80;;;;;;5111199;28;20039;-66
2021/07/06 04:24:49;;;;;;;8.53;7.63;;;17.00;95.80;;;;;;5110617;28;20206;-66
2021/07/06 04:27:15;;;;;;;7.93;7.23;;;17.10;95.70;;;;;;5111389;28;20398;-66
2021/07/06 04:29:40;;;;;;;7.80;7.00;;;17.10;95.70;;;;;;5111537;28;20387;-66
2021/07/06 04:32:06;;;;;;;9.13;6.63;;;17.10;95.70;;;;;;5115016;28;20055;-66
2021/07/06 04:34:32;;;;;;;8.43;7.17;;;17.20;95.70;;;;;;5115219;28;20101;-66
2021/07/06 04:36:58;;;;;;;7.67;6.33;;;17.30;95.60;;;;;;5115514;28;20047;-66
2021/07/06 04:39:23;;;;;;;7.00;6.30;;;17.30;95.50;;;;;;5114540;28;20066;-66
2021/07/06 04:41:49;;;;;;;8.43;6.40;;;17.30;95.60;;;;;;5115616;28;20043;-66
2021/07/06 04:44:15;;;;;;;12.27;6.40;;;17.30;95.60;;;;;;5115373;28;20055;-66
2021/07/06 04:46:42;;;;;;;8.57;6.37;;;17.30;95.60;;;;;;5114843;28;20120;-66
2021/07/06 04:49:08;;;;;;;6.90;6.10;;;17.40;95.60;;;;;;5115327;28;20491;-66
2021/07/06 04:51:34;;;;;;;6.20;5.00;;;17.40;95.60;;;;;;5115132;28;20081;-66
2021/07/06 04:54:00;;;;;;;7.97;6.10;;;17.40;95.50;;;;;;5114356;28;20055;-66
2021/07/06 04:56:27;;;;;;;8.20;6.17;;;17.50;95.60;;;;;;5114741;28;20061;-66
2021/07/06 04:58:54;;;;;;;6.10;4.73;;;17.50;95.60;;;;;;5115244;28;20050;-66
2021/07/06 05:01:20;;;;;;;6.23;5.50;;;17.50;95.60;;;;;;5112889;28;20065;-65
2021/07/06 05:03:47;;;;;;;6.30;5.30;;;17.50;95.60;;;;;;5115046;28;20134;-65
2021/07/06 05:06:12;;;;;;;7.33;5.13;;;17.60;95.60;;;;;;5113854;28;20048;-66
2021/07/06 05:08:39;;;;;;;8.00;4.83;;;17.60;95.60;;;;;;5114702;28;20070;-66
2021/07/06 05:11:04;;;;;;;7.43;4.47;;;17.60;95.60;;;;;;5114972;28;20104;-66
2021/07/06 05:13:31;;;;;;;7.73;4.17;;;17.70;95.70;;;;;;5113513;28;20138;-66
2021/07/06 05:15:56;;;;;;;5.53;3.97;;;17.70;95.70;;;;;;5114651;28;20157;-66
2021/07/06 05:18:22;;;;;;;5.13;4.00;;;17.70;95.70;;;;;;5114411;28;20047;-66
2021/07/06 05:20:48;;;;;;;6.97;4.00;;;17.80;95.60;;;;;;5113878;28;20055;-66
2021/07/06 05:23:13;;;;;;;7.17;4.17;;;17.80;95.60;;;;;;5114155;28;20184;-66
2021/07/06 05:25:39;;;;;;;4.43;3.93;;;17.80;95.50;;;;;;5114734;28;20075;-66
2021/07/06 05:28:05;;;;;;;6.13;4.40;;;17.90;95.40;;;;;;5113796;28;20045;-66
2021/07/06 05:30:30;;;;;;;4.77;3.10;;;18.00;95.30;;;;;;5114308;28;20185;-66
2021/07/06 05:32:57;;;;;;;7.33;3.33;;;18.10;95.30;;;;;;5114597;28;20076;-66
2021/07/06 05:35:23;;;;;;;5.20;3.30;;;18.20;95.10;;;;;;5113394;28;20078;-66
2021/07/06 05:37:49;;;;;;;5.53;3.40;;;18.30;95.00;;;;;;5114552;28;20074;-66
2021/07/06 05:40:15;;;;;;;4.17;3.20;;;18.40;94.90;;;;;;5114064;28;20074;-66
2021/07/06 05:42:41;;;;;;;6.27;3.27;;;18.40;94.80;;;;;;5112921;28;20480;-66
2021/07/06 05:45:08;;;;;;;5.37;2.90;;;18.50;94.60;;;;;;5114115;28;20105;-66
2021/07/06 05:47:38;;;;;;;6.33;3.17;;;18.50;94.60;;;;;;5114037;28;20441;-65
2021/07/06 05:50:09;;;;;;;4.07;2.60;;;18.50;94.50;;;;;;5113252;28;20044;-65
2021/07/06 05:52:36;;;;;;;3.47;2.00;;;18.50;94.40;;;;;;5114397;28;20059;-66
2021/07/06 05:55:03;;;;;;;4.77;2.50;;;18.50;94.40;;;;;;5114169;28;20063;-66
2021/07/06 05:57:31;;;;;;;3.97;2.17;;;18.50;94.30;;;;;;5112948;28;20162;-66
2021/07/06 06:00:03;;;;;;;4.47;2.30;;;18.50;94.30;;;;;;5114120;28;20043;-66
2021/07/06 06:02:29;;;;;;;4.20;2.17;;;18.50;94.30;;;;;;5111720;28;20432;-67
2021/07/06 06:04:55;;;;;;;3.33;1.80;;;18.50;94.20;;;;;;5112744;28;20047;-66
2021/07/06 06:07:23;;;;;;;4.17;2.00;;;18.50;94.20;;;;;;5113006;27;20048;-66
2021/07/06 06:09:48;;;;;;;2.20;1.73;;;18.50;94.20;;;;;;5112294;28;20048;-67
2021/07/06 06:12:14;;;;;;;4.30;1.97;;;18.50;94.20;;;;;;5113128;28;20115;-66
2021/07/06 06:14:40;;;;;;;4.13;1.90;;;18.50;94.10;;;;;;5113006;28;20388;-66
2021/07/06 06:17:06;;;;;;;5.97;2.53;;;18.50;94.20;;;;;;5112491;28;20048;-66
2021/07/06 06:19:32;;;;;;;5.37;2.07;;;18.40;94.60;;;;;;5113131;28;20044;-66
2021/07/06 06:21:58;;;;;;;5.53;2.03;;;18.40;94.40;;;;;;5113332;28;20131;-66
2021/07/06 06:24:24;;;;;;;4.17;2.53;;;18.30;94.50;;;;;;5112670;28;20043;-66
2021/07/06 06:26:50;;;;;;;3.87;1.97;;;18.30;94.70;;;;;;5113164;28;20044;-66
2021/07/06 06:29:16;;;;;;;4.50;2.17;;;18.20;94.80;;;;;;5110448;28;20043;-66
2021/07/06 06:31:43;;;;;;;4.90;2.20;;;18.20;94.90;;;;;;5112236;28;20179;-66
2021/07/06 06:34:09;;;;;;;3.07;2.10;;;18.20;95.00;;;;;;5112387;28;20043;-66
2021/07/06 06:36:34;;;;;;;4.47;2.27;;;18.20;95.00;;;;;;5112857;28;20070;-66
2021/07/06 06:39:01;;;;;;;3.50;2.07;;;18.30;95.10;;;;;;5112099;28;20062;-66
2021/07/06 06:41:27;;;;;;;4.73;2.37;;;18.30;95.10;;;;;;5112279;28;20415;-66
2021/07/06 06:43:53;;;;;;;3.60;2.20;;;18.30;95.10;;;;;;5112604;28;20042;-66
2021/07/06 06:46:20;;;;;;;4.40;2.27;;;18.30;95.20;;;;;;5111493;28;20503;-67
2021/07/06 06:48:47;;;;;;;3.70;2.13;;;18.30;95.20;;;;;;5113016;28;20040;-67
2021/07/06 06:51:13;;;;;;;3.83;2.40;;;18.30;95.20;;;;;;5112103;28;20456;-66
2021/07/06 06:53:39;;;;;;;6.17;3.10;;;18.30;95.20;;;;;;5110767;28;20042;-66
2021/07/06 06:56:05;;;;;;;4.33;2.70;;;18.30;95.30;;;;;;5109438;28;20056;-66
2021/07/06 06:58:31;;;;;;;4.53;2.40;;;18.30;95.30;;;;;;5112204;28;20055;-66
2021/07/06 07:00:56;;;;;;;3.77;2.40;;;18.40;95.40;;;;;;5111491;28;20397;-66
2021/07/06 07:03:22;;;;;;;5.90;2.20;;;18.40;95.40;;;;;;5112192;28;20426;-66
2021/07/06 07:05:48;;;;;;;4.50;2.20;;;18.40;95.30;;;;;;5111345;28;20040;-67
2021/07/06 07:08:13;;;;;;;3.93;2.30;;;18.50;95.20;;;;;;5111642;28;20098;-66
2021/07/06 07:10:40;;;;;;;3.17;2.03;;;18.50;95.20;;;;;;5111725;28;20055;-66
2021/07/06 07:13:07;;;;;;;3.27;1.83;;;18.50;95.20;;;;;;5111271;28;20040;-67
2021/07/06 07:15:34;;;;;;;5.00;3.00;;;18.50;95.20;;;;;;5111552;28;20054;-67
2021/07/06 07:18:00;;;;;;;4.20;2.20;;;18.50;95.20;;;;;;5112141;28;20067;-67
2021/07/06 07:20:26;;;;;;;2.33;2.10;;;18.60;95.10;;;;;;5111016;28;20043;-67
2021/07/06 07:22:51;;;;;;;3.63;2.30;;;18.60;95.10;;;;;;5112035;28;20044;-67
2021/07/06 07:25:17;;;;;;;2.87;1.90;;;18.60;95.00;;;;;;5111705;28;20584;-67
2021/07/06 07:27:44;;;;;;;4.47;2.23;;;18.60;95.00;;;;;;5111393;28;20071;-67
2021/07/06 07:30:14;;;;;;;5.60;2.37;;;18.70;95.00;;;;;;5111931;28;20484;-66
2021/07/06 07:32:40;;;;;;;5.07;2.87;;;18.70;94.90;;;;;;5112343;28;20089;-67
2021/07/06 07:35:06;;;;;;;4.17;1.83;;;18.70;94.70;;;;;;5110717;28;20487;-67
2021/07/06 07:37:32;;;;;;;4.07;2.10;;;18.80;94.70;;;;;;5111291;28;20044;-67
2021/07/06 07:39:58;;;;;;;7.67;2.50;;;18.90;94.60;;;;;;5111859;28;20519;-67
2021/07/06 07:42:23;;;;;;;5.10;2.10;;;18.90;94.40;;;;;;5111056;28;20135;-67
2021/07/06 07:44:49;;;;;;;3.37;2.33;;;19.00;94.40;;;;;;5111871;28;20344;-67
2021/07/06 07:47:16;;;;;;;4.13;2.30;;;19.00;94.40;;;;;;5111656;28;20136;-67
2021/07/06 07:49:41;;;;;;;3.23;2.00;;;19.10;94.30;;;;;;5110869;28;20456;-66
2021/07/06 07:52:08;;;;;;;4.07;1.77;;;19.10;94.10;;;;;;5111584;28;20116;-66
2021/07/06 07:54:34;;;;;;;4.53;2.47;;;19.20;94.10;;;;;;5111738;28;20518;-67
2021/07/06 07:57:00;;;;;;;3.67;1.87;;;19.20;94.00;;;;;;5110684;28;20067;-66
2021/07/06 07:59:25;;;;;;;2.87;1.90;;;19.30;94.00;;;;;;5111350;28;20139;-67
2021/07/06 08:01:51;;;;;;;2.70;2.00;;;19.40;93.90;;;;;;5111111;28;20052;-67
2021/07/06 08:04:16;;;;;;;7.20;3.10;;;19.40;93.70;;;;;;5110388;28;20097;-66
2021/07/06 08:06:42;;;;;;;3.93;2.07;;;19.50;93.50;;;;;;5110782;28;20040;-67
2021/07/06 08:09:08;;;;;;;3.80;2.10;;;19.50;93.30;;;;;;5110826;28;20480;-67
2021/07/06 08:11:34;;;;;;;4.50;2.30;;;19.60;93.20;;;;;;5111159;28;20040;-67
2021/07/06 08:13:59;;;;;;;4.33;2.30;;;19.60;93.10;;;;;;5111156;28;20461;-67
2021/07/06 08:16:26;;;;;;;4.07;2.10;;;19.70;92.80;;;;;;5109761;28;20534;-67
2021/07/06 08:18:52;;;;;;;5.13;2.13;;;19.80;92.70;;;;;;5111605;28;20073;-66
2021/07/06 08:21:20;;;;;;;4.57;2.00;;;19.80;92.60;;;;;;5111023;28;20048;-66
2021/07/06 08:23:45;;;;;;;3.00;2.00;;;19.90;92.50;;;;;;5110837;28;20097;-67
2021/07/06 08:26:11;;;;;;;4.03;2.03;;;19.90;92.40;;;;;;5111329;28;20047;-67
2021/07/06 08:28:37;;;;;;;5.27;1.97;;;19.90;92.30;;;;;;5111001;28;20071;-67
2021/07/06 08:31:03;;;;;;;4.20;2.20;;;20.00;92.20;;;;;;5110616;28;20122;-66
2021/07/06 08:33:29;;;;;;;4.13;1.87;;;20.00;92.10;;;;;;5111097;28;20130;-67
2021/07/06 08:35:54;;;;;;;2.50;1.70;;;20.10;92.10;;;;;;5111048;28;20583;-67
2021/07/06 08:38:20;;;;;;;4.07;1.90;;;20.10;92.00;;;;;;5110077;28;20051;-67
2021/07/06 08:40:50;;;;;;;4.10;1.93;;;20.10;91.80;;;;;;5110968;28;20047;-67
2021/07/06 08:43:16;;;;;;;3.33;1.63;;;20.10;91.70;;;;;;5110426;28;20083;-67
2021/07/06 08:45:45;;;;;;;5.43;1.67;;;20.20;91.70;;;;;;5110046;28;20048;-67
2021/07/06 08:48:12;;;;;;;3.73;2.30;;;20.20;91.60;;;;;;5110012;28;20388;-66
2021/07/06 08:50:38;;;;;;;3.60;2.00;;;20.30;91.50;;;;;;5110112;28;20421;-66
2021/07/06 08:53:04;;;;;;;4.13;2.00;;;20.30;91.50;;;;;;5109406;28;20153;-67
2021/07/06 08:55:30;;;;;;;4.67;1.87;;;20.40;91.50;;;;;;5109901;28;20480;-67
2021/07/06 08:57:56;;;;;;;4.03;1.90;;;20.40;91.30;;;;;;5110249;28;20043;-67
2021/07/06 09:00:22;;;;;;;3.70;1.73;;;20.50;91.10;;;;;;5109523;28;20066;-67
2021/07/06 09:02:56;;;;;;;5.77;2.00;;;20.60;90.80;;;;;;5110466;28;20488;-66
2021/07/06 09:05:23;;;;;;;3.97;2.00;;;20.60;90.50;;;;;;5109854;28;20044;-67
2021/07/06 09:07:49;;;;;;;5.87;2.23;;;20.70;90.40;;;;;;5110531;28;20055;-67
2021/07/06 09:10:17;;;;;;;4.70;2.13;;;20.80;90.30;;;;;;5109536;28;20492;-67
2021/07/06 09:12:46;;;;;;;3.53;1.83;;;20.80;90.20;;;;;;5109138;28;20047;-67
2021/07/06 09:15:26;;;;;;;3.20;1.60;;;20.80;90.00;;;;;;5109313;28;20575;-67
2021/07/06 09:18:06;;;;;;;3.17;1.73;;;20.90;89.30;;;;;;5112204;28;20121;-67
2021/07/06 09:20:32;;;;;;;4.43;1.83;;;20.90;88.50;;;;;;5112933;28;20044;-67
2021/07/06 09:23:27;;;;;;;3.33;1.70;;;20.80;88.40;;;;;;5113683;28;20047;-67
2021/07/06 09:26:11;;;;;;;3.03;1.60;;;20.90;87.90;;;;;;5093735;28;20458;-67
2021/07/06 09:28:40;;;;;;;3.75;1.80;;;21.00;88.20;;;;;;5092395;28;20127;-67
2021/07/06 09:31:29;;;;;;;2.53;1.13;;;21.20;88.60;;;;;;5092312;28;20193;-67
2021/07/06 09:34:03;;;;;;;3.17;1.67;;;21.30;87.00;;;;;;5092134;28;20044;-68
2021/07/06 09:36:32;;;;;;;4.25;1.40;;;21.60;86.40;;;;;;5092871;28;20097;-68
2021/07/06 09:39:00;;;;;;;3.92;1.27;;;21.80;85.90;;;;;;5093137;28;20110;-67
2021/07/06 09:41:25;;;;;;;2.55;1.10;;;22.00;85.00;;;;;;5092312;28;20052;-67
2021/07/06 09:43:51;;;;;;;2.80;1.20;;;22.10;82.90;;;;;;5093714;28;20464;-67
2021/07/06 09:46:17;;;;;;;2.70;1.42;;;22.20;81.70;;;;;;5093577;28;20044;-67
2021/07/06 09:48:47;;;;;;;4.30;1.35;;;22.40;81.30;;;;;;5092922;28;20089;-66
2021/07/06 09:51:21;;;;;;;1.85;1.10;;;22.60;80.40;;;;;;5093608;28;20094;-67
2021/07/06 09:53:49;;;;;;;3.30;1.42;;;22.70;78.80;;;;;;5093488;28;20047;-67
2021/07/06 09:56:17;;;;;;;2.28;1.00;;;22.90;79.00;;;;;;5092969;28;20044;-68
2021/07/06 09:58:52;;;;;;;3.83;1.17;;;23.00;78.10;;;;;;5093729;28;20185;-67
2021/07/06 10:01:18;;;;;;;1.55;0.90;;;23.20;76.60;;;;;;5093713;28;20098;-68
2021/07/06 10:03:44;;;;;;;4.57;1.20;;;23.30;75.30;;;;;;5092962;28;20054;-67
2021/07/06 10:06:12;;;;;;;2.00;1.02;;;23.20;74.40;;;;;;5093152;28;20143;-68
2021/07/06 10:08:38;;;;;;;3.67;1.05;;;23.00;73.90;;;;;;5092658;28;20052;-67
2021/07/06 10:11:04;;;;;;;3.10;1.00;;;22.90;74.60;;;;;;5093466;28;20507;-68
2021/07/06 10:13:29;;;;;;;2.75;1.20;;;22.80;74.90;;;;;;5093089;28;20040;-67
2021/07/06 10:15:55;;;;;;;2.97;1.05;;;22.80;74.50;;;;;;5092387;28;20056;-67
2021/07/06 10:18:21;;;;;;;1.63;0.90;;;22.70;74.60;;;;;;5092907;28;20124;-67
2021/07/06 10:20:47;;;;;;;1.50;0.93;;;22.60;74.20;;;;;;5093378;28;20048;-67
2021/07/06 10:23:13;;;;;;;1.52;1.00;;;22.60;75.00;;;;;;5092018;28;20044;-67
2021/07/06 10:25:39;;;;;;;2.28;0.90;;;22.60;75.60;;;;;;5093373;28;20055;-67
2021/07/06 10:28:14;;;;;;;4.88;1.15;;;22.60;75.60;;;;;;5093086;28;20051;-67
2021/07/06 10:30:42;;;;;;;1.42;0.93;;;22.70;75.10;;;;;;5092443;28;20081;-67
2021/07/06 10:33:32;;;;;;;2.08;0.80;;;22.80;74.80;;;;;;5092964;28;20044;-68
2021/07/06 10:35:59;;;;;;;2.20;1.10;;;22.80;73.50;;;;;;5092508;28;20127;-68
2021/07/06 10:38:33;;;;;;;0.98;0.60;;;22.70;73.30;;;;;;5091528;28;20290;-67
2021/07/06 10:41:00;;;;;;;5.13;0.95;;;22.60;72.50;;;;;;5093350;28;20055;-67
2021/07/06 10:43:30;;;;;;;5.43;0.85;;;22.60;72.60;;;;;;5092374;28;20052;-67
2021/07/06 10:45:57;;;;;;;4.03;1.10;;;22.60;71.80;;;;;;5091942;28;20059;-67
2021/07/06 10:48:42;;;;;;;1.23;1.00;;;22.70;71.90;;;;;;5092143;28;20064;-67
2021/07/06 10:51:29;;;;;;;3.20;0.93;;;22.80;69.80;;;;;;5091182;28;20052;-67
2021/07/06 10:54:17;;;;;;;1.45;0.85;;;22.90;71.00;;;;;;5091979;28;20109;-67
2021/07/06 10:56:44;;;;;;;3.20;0.70;;;23.10;69.20;;;;;;5092351;28;20488;-67
2021/07/06 10:59:30;;;;;;;1.63;0.70;;;23.20;71.00;;;;;;5091407;28;20493;-67
2021/07/06 11:01:59;;;;;;;1.95;0.95;;;23.30;70.30;;;;;;5085107;28;20117;-67
2021/07/06 11:04:37;;;;;;;2.55;1.00;;;23.20;70.70;;;;;;5091664;28;20521;-67
2021/07/06 11:07:03;;;;;;;2.60;0.90;;;23.00;68.80;;;;;;5091847;28;20153;-67
2021/07/06 11:09:35;;;;;;;4.40;0.90;;;22.80;69.90;;;;;;5091996;28;20062;-67
2021/07/06 11:12:21;;;;;;;;;;;22.50;70.00;;;;;;5091809;28;20230;-69
2021/07/06 11:14:50;;;;;;;2.65;0.90;;;22.40;70.10;;;;;;5091406;28;19963;-69
2021/07/06 11:17:36;;;;;;;2.10;1.00;;;22.20;71.40;;;;;;5091910;28;20048;-70
2021/07/06 11:20:29;;;;;;;3.70;1.30;;;22.00;70.40;;;;;;5091859;28;20127;-69
2021/07/06 11:22:56;;;;;;;2.45;1.02;;;22.00;70.00;;;;;;5092502;28;20381;-69
2021/07/06 11:25:23;;;;;;;6.53;1.05;;;21.80;71.00;;;;;;5091123;28;20048;-69
2021/07/06 11:28:10;;;;;;;4.72;1.13;;;21.70;71.00;;;;;;5090624;28;20142;-69
2021/07/06 11:30:46;;;;;;;1.75;0.98;;;21.70;71.00;;;;;;5091211;28;20113;-69
2021/07/06 11:33:18;;;;;;;3.30;1.27;;;21.80;71.90;;;;;;5090651;28;20052;-70
2021/07/06 11:36:01;;;;;;;2.90;1.20;;;22.00;71.50;;;;;;5091231;28;20104;-69
2021/07/06 11:38:41;;;;;;;3.42;1.17;;;22.10;71.20;;;;;;5091035;28;20067;-69
2021/07/06 11:41:09;;;;;;;3.22;1.02;;;22.40;70.30;;;;;;5090132;28;20105;-69
2021/07/06 11:43:36;;;;;;;3.45;1.20;;;22.50;70.60;;;;;;5091897;28;20044;-70
2021/07/06 11:46:12;;;;;;;6.35;1.23;;;22.80;70.10;;;;;;5092229;28;20123;-68
2021/07/06 11:48:39;;;;;;;4.57;0.80;;;23.10;69.10;;;;;;5091893;28;20048;-68
2021/07/06 11:51:08;;;;;;;5.05;0.90;;;23.40;68.60;;;;;;5091978;28;20504;-69
2021/07/06 11:53:43;;;;;;;8.43;1.30;;;23.60;66.90;;;;;;5092301;28;20089;-69
2021/07/06 11:56:13;;;;;;;3.05;0.77;;;23.70;63.60;;;;;;5090491;28;20086;-68
2021/07/06 11:58:39;;;;;;;2.97;0.70;;;23.80;63.20;;;;;;5092040;28;20057;-69
2021/07/06 12:01:11;;;;;;;2.83;0.70;;;23.90;62.90;;;;;;5091347;28;20195;-68
2021/07/06 12:03:39;;;;;;;3.25;1.27;;;24.00;63.10;;;;;;5092140;28;20376;-69
2021/07/06 12:06:07;;;;;;;3.17;0.90;;;24.10;62.00;;;;;;5092450;28;20075;-68
2021/07/06 12:08:43;;;;;;;2.60;1.05;;;24.20;61.40;;;;;;5091631;28;20129;-68
2021/07/06 12:11:19;;;;;;;3.17;0.52;;;24.30;59.00;;;;;;5092023;28;20044;-69
2021/07/06 12:13:49;;;;;;;4.13;0.95;;;24.40;59.60;;;;;;5091742;28;20066;-68
2021/07/06 12:16:39;;;;;;;4.57;0.82;;;24.30;59.10;;;;;;5089670;28;20496;-68
2021/07/06 12:19:13;;;;;;;1.90;0.70;;;24.30;58.80;;;;;;5091112;28;20047;-69
2021/07/06 12:21:47;;;;;;;3.72;1.00;;;24.40;58.10;;;;;;5091417;28;20127;-69
2021/07/06 12:24:18;;;;;;;1.90;0.75;;;24.40;58.40;;;;;;5090179;28;20076;-69
2021/07/06 12:26:47;;;;;;;3.63;1.00;;;24.20;57.40;;;;;;5091040;28;20083;-69
2021/07/06 12:29:24;;;;;;;3.05;1.10;;;24.10;58.70;;;;;;5091200;28;20383;-69
2021/07/06 12:31:50;;;;;;;2.75;0.80;;;24.00;59.30;;;;;;5091838;28;20048;-69
2021/07/06 12:34:17;;;;;;;4.30;1.02;;;23.90;59.60;;;;;;5091078;28;20044;-69
2021/07/06 12:36:57;;;;;;;2.65;0.70;;;23.80;60.30;;;;;;5090797;28;20048;-68
2021/07/06 12:39:26;;;;;;;2.75;0.70;;;23.60;59.60;;;;;;5091486;28;20044;-69
2021/07/06 12:42:00;;;;;;;4.05;0.80;;;23.40;59.70;;;;;;5091493;28;20414;-69
2021/07/06 12:44:44;;;;;;;3.50;1.10;;;23.30;59.90;;;;;;5090945;28;20052;-70
2021/07/06 12:47:23;;;;;;;4.97;1.10;;;23.20;59.80;;;;;;5091195;28;20492;-69